sensor_id;sensor_type;location;lat;lon;timestamp;P1;durP1;ratioP1;P2;durP2;ratioP2
34491;SDS011;20737;49.908;8.126;2023-02-17T00:01:24;34.15;;;17.15;;
34491;SDS011;20737;49.908;8.126;2023-02-17T00:03:52;36.40;;;17.17;;
34491;SDS011;20737;49.908;8.126;2023-02-17T00:06:20;38.10;;;17.48;;
34491;SDS011;20737;49.908;8.126;2023-02-17T00:08:49;32.35;;;16.52;;
34491;SDS011;20737;49.908;8.126;2023-02-17T00:11:23;38.95;;;18.23;;
34491;SDS011;20737;49.908;8.126;2023-02-17T00:13:50;36.00;;;17.93;;
34491;SDS011;20737;49.908;8.126;2023-02-17T00:16:20;37.90;;;18.50;;
34491;SDS011;20737;49.908;8.126;2023-02-17T00:18:51;31.98;;;16.67;;
34491;SDS011;20737;49.908;8.126;2023-02-17T00:21:19;32.58;;;17.58;;
34491;SDS011;20737;49.908;8.126;2023-02-17T00:23:50;34.67;;;18.20;;
34491;SDS011;20737;49.908;8.126;2023-02-17T00:26:18;31.52;;;16.00;;
34491;SDS011;20737;49.908;8.126;2023-02-17T00:28:48;30.65;;;16.63;;
34491;SDS011;20737;49.908;8.126;2023-02-17T00:31:20;29.33;;;15.73;;
34491;SDS011;20737;49.908;8.126;2023-02-17T00:33:52;27.58;;;15.27;;
34491;SDS011;20737;49.908;8.126;2023-02-17T00:36:22;31.77;;;15.98;;
34491;SDS011;20737;49.908;8.126;2023-02-17T00:38:49;32.35;;;16.67;;
34491;SDS011;20737;49.908;8.126;2023-02-17T00:41:16;33.88;;;16.83;;
34491;SDS011;20737;49.908;8.126;2023-02-17T00:43:44;32.72;;;15.82;;
34491;SDS011;20737;49.908;8.126;2023-02-17T00:46:12;28.40;;;15.70;;
34491;SDS011;20737;49.908;8.126;2023-02-17T00:48:41;30.92;;;17.77;;
34491;SDS011;20737;49.908;8.126;2023-02-17T00:51:08;32.05;;;16.92;;
34491;SDS011;20737;49.908;8.126;2023-02-17T00:53:35;30.75;;;16.33;;
34491;SDS011;20737;49.908;8.126;2023-02-17T00:56:02;32.10;;;15.80;;
34491;SDS011;20737;49.908;8.126;2023-02-17T00:58:30;31.55;;;16.50;;
34491;SDS011;20737;49.908;8.126;2023-02-17T01:00:57;31.23;;;16.80;;
34491;SDS011;20737;49.908;8.126;2023-02-17T01:03:24;33.00;;;17.40;;
34491;SDS011;20737;49.908;8.126;2023-02-17T01:05:53;33.72;;;16.83;;
34491;SDS011;20737;49.908;8.126;2023-02-17T01:08:21;33.20;;;16.88;;
34491;SDS011;20737;49.908;8.126;2023-02-17T01:10:49;33.35;;;17.58;;
34491;SDS011;20737;49.908;8.126;2023-02-17T01:13:18;31.58;;;17.17;;
34491;SDS011;20737;49.908;8.126;2023-02-17T01:15:46;32.78;;;17.00;;
34491;SDS011;20737;49.908;8.126;2023-02-17T01:18:16;30.65;;;16.77;;
34491;SDS011;20737;49.908;8.126;2023-02-17T01:20:43;30.95;;;15.45;;
34491;SDS011;20737;49.908;8.126;2023-02-17T01:23:13;32.25;;;15.27;;
34491;SDS011;20737;49.908;8.126;2023-02-17T01:25:46;32.65;;;16.67;;
34491;SDS011;20737;49.908;8.126;2023-02-17T01:28:16;26.80;;;15.35;;
34491;SDS011;20737;49.908;8.126;2023-02-17T01:30:44;27.70;;;14.45;;
34491;SDS011;20737;49.908;8.126;2023-02-17T01:33:11;27.05;;;14.20;;
34491;SDS011;20737;49.908;8.126;2023-02-17T01:35:38;30.55;;;16.35;;
34491;SDS011;20737;49.908;8.126;2023-02-17T01:38:05;30.67;;;16.33;;
34491;SDS011;20737;49.908;8.126;2023-02-17T01:40:33;30.05;;;14.52;;
34491;SDS011;20737;49.908;8.126;2023-02-17T01:42:59;28.10;;;13.98;;
34491;SDS011;20737;49.908;8.126;2023-02-17T01:45:34;24.60;;;13.10;;
34491;SDS011;20737;49.908;8.126;2023-02-17T01:48:04;24.48;;;12.75;;
34491;SDS011;20737;49.908;8.126;2023-02-17T01:50:36;23.83;;;13.93;;
34491;SDS011;20737;49.908;8.126;2023-02-17T01:53:07;22.53;;;12.53;;
34491;SDS011;20737;49.908;8.126;2023-02-17T01:55:37;23.05;;;13.52;;
34491;SDS011;20737;49.908;8.126;2023-02-17T01:58:06;29.92;;;13.68;;
34491;SDS011;20737;49.908;8.126;2023-02-17T02:00:37;21.13;;;12.10;;
34491;SDS011;20737;49.908;8.126;2023-02-17T02:03:05;24.02;;;13.73;;
34491;SDS011;20737;49.908;8.126;2023-02-17T02:05:34;24.42;;;11.63;;
34491;SDS011;20737;49.908;8.126;2023-02-17T02:08:02;23.05;;;12.15;;
34491;SDS011;20737;49.908;8.126;2023-02-17T02:10:29;21.95;;;12.63;;
34491;SDS011;20737;49.908;8.126;2023-02-17T02:12:57;21.23;;;11.45;;
34491;SDS011;20737;49.908;8.126;2023-02-17T02:15:25;21.42;;;11.13;;
34491;SDS011;20737;49.908;8.126;2023-02-17T02:18:07;17.10;;;8.50;;
34491;SDS011;20737;49.908;8.126;2023-02-17T02:20:53;15.05;;;9.10;;
34491;SDS011;20737;49.908;8.126;2023-02-17T02:23:54;18.67;;;9.40;;
34491;SDS011;20737;49.908;8.126;2023-02-17T02:29:19;16.70;;;7.32;;
34491;SDS011;20737;49.908;8.126;2023-02-17T02:32:21;16.08;;;8.05;;
34491;SDS011;20737;49.908;8.126;2023-02-17T02:35:05;15.95;;;8.68;;
34491;SDS011;20737;49.908;8.126;2023-02-17T02:37:38;16.58;;;7.97;;
34491;SDS011;20737;49.908;8.126;2023-02-17T02:40:09;16.10;;;7.82;;
34491;SDS011;20737;49.908;8.126;2023-02-17T02:42:38;14.55;;;7.78;;
34491;SDS011;20737;49.908;8.126;2023-02-17T02:45:07;13.23;;;6.85;;
34491;SDS011;20737;49.908;8.126;2023-02-17T02:47:42;11.75;;;7.07;;
34491;SDS011;20737;49.908;8.126;2023-02-17T02:50:20;12.55;;;7.13;;
34491;SDS011;20737;49.908;8.126;2023-02-17T02:52:54;13.68;;;6.88;;
34491;SDS011;20737;49.908;8.126;2023-02-17T02:55:35;10.35;;;6.70;;
34491;SDS011;20737;49.908;8.126;2023-02-17T02:58:11;14.75;;;7.38;;
34491;SDS011;20737;49.908;8.126;2023-02-17T03:00:44;10.32;;;6.18;;
34491;SDS011;20737;49.908;8.126;2023-02-17T03:03:20;12.95;;;7.10;;
34491;SDS011;20737;49.908;8.126;2023-02-17T03:05:54;15.07;;;7.60;;
34491;SDS011;20737;49.908;8.126;2023-02-17T03:08:28;12.88;;;6.95;;
34491;SDS011;20737;49.908;8.126;2023-02-17T03:11:00;12.40;;;7.22;;
34491;SDS011;20737;49.908;8.126;2023-02-17T03:13:27;12.07;;;7.13;;
34491;SDS011;20737;49.908;8.126;2023-02-17T03:16:00;13.43;;;6.70;;
34491;SDS011;20737;49.908;8.126;2023-02-17T03:18:34;13.75;;;7.00;;
34491;SDS011;20737;49.908;8.126;2023-02-17T03:21:05;12.63;;;7.03;;
34491;SDS011;20737;49.908;8.126;2023-02-17T03:23:37;9.93;;;7.25;;
34491;SDS011;20737;49.908;8.126;2023-02-17T03:26:04;11.48;;;6.63;;
34491;SDS011;20737;49.908;8.126;2023-02-17T03:28:34;14.45;;;7.72;;
34491;SDS011;20737;49.908;8.126;2023-02-17T03:31:00;9.88;;;6.75;;
34491;SDS011;20737;49.908;8.126;2023-02-17T03:33:27;13.05;;;7.38;;
34491;SDS011;20737;49.908;8.126;2023-02-17T03:35:55;12.55;;;7.15;;
34491;SDS011;20737;49.908;8.126;2023-02-17T03:38:25;12.25;;;7.03;;
34491;SDS011;20737;49.908;8.126;2023-02-17T03:40:53;12.32;;;7.25;;
34491;SDS011;20737;49.908;8.126;2023-02-17T03:43:20;12.30;;;6.82;;
34491;SDS011;20737;49.908;8.126;2023-02-17T03:45:47;11.50;;;7.10;;
34491;SDS011;20737;49.908;8.126;2023-02-17T03:48:14;12.10;;;7.10;;
34491;SDS011;20737;49.908;8.126;2023-02-17T03:50:40;12.20;;;6.53;;
34491;SDS011;20737;49.908;8.126;2023-02-17T03:53:10;11.52;;;7.63;;
34491;SDS011;20737;49.908;8.126;2023-02-17T03:55:37;10.23;;;6.40;;
34491;SDS011;20737;49.908;8.126;2023-02-17T03:58:04;9.35;;;5.95;;
34491;SDS011;20737;49.908;8.126;2023-02-17T04:00:31;11.82;;;5.82;;
34491;SDS011;20737;49.908;8.126;2023-02-17T04:02:57;13.13;;;6.38;;
34491;SDS011;20737;49.908;8.126;2023-02-17T04:05:24;10.30;;;6.65;;
34491;SDS011;20737;49.908;8.126;2023-02-17T04:07:51;11.15;;;6.70;;
34491;SDS011;20737;49.908;8.126;2023-02-17T04:10:21;8.82;;;5.53;;
34491;SDS011;20737;49.908;8.126;2023-02-17T04:12:48;7.57;;;5.70;;
34491;SDS011;20737;49.908;8.126;2023-02-17T04:15:14;9.45;;;5.35;;
34491;SDS011;20737;49.908;8.126;2023-02-17T04:17:41;8.95;;;5.13;;
34491;SDS011;20737;49.908;8.126;2023-02-17T04:20:08;10.82;;;5.72;;
34491;SDS011;20737;49.908;8.126;2023-02-17T04:22:36;8.80;;;5.47;;
34491;SDS011;20737;49.908;8.126;2023-02-17T04:25:03;8.52;;;5.25;;
34491;SDS011;20737;49.908;8.126;2023-02-17T04:27:31;9.20;;;4.97;;
34491;SDS011;20737;49.908;8.126;2023-02-17T04:29:58;10.10;;;4.97;;
34491;SDS011;20737;49.908;8.126;2023-02-17T04:32:24;8.10;;;4.82;;
34491;SDS011;20737;49.908;8.126;2023-02-17T04:34:51;7.88;;;4.80;;
34491;SDS011;20737;49.908;8.126;2023-02-17T04:37:18;7.75;;;4.88;;
34491;SDS011;20737;49.908;8.126;2023-02-17T04:39:49;6.32;;;4.40;;
34491;SDS011;20737;49.908;8.126;2023-02-17T04:42:16;7.93;;;4.85;;
34491;SDS011;20737;49.908;8.126;2023-02-17T04:44:44;6.18;;;3.38;;
34491;SDS011;20737;49.908;8.126;2023-02-17T04:47:11;8.60;;;4.50;;
34491;SDS011;20737;49.908;8.126;2023-02-17T04:49:38;7.72;;;4.68;;
34491;SDS011;20737;49.908;8.126;2023-02-17T04:52:06;7.82;;;4.25;;
34491;SDS011;20737;49.908;8.126;2023-02-17T04:54:33;7.32;;;4.78;;
34491;SDS011;20737;49.908;8.126;2023-02-17T04:57:00;6.97;;;4.05;;
34491;SDS011;20737;49.908;8.126;2023-02-17T04:59:26;4.60;;;3.45;;
34491;SDS011;20737;49.908;8.126;2023-02-17T05:01:55;6.43;;;4.15;;
34491;SDS011;20737;49.908;8.126;2023-02-17T05:04:23;5.53;;;3.50;;
34491;SDS011;20737;49.908;8.126;2023-02-17T05:06:50;5.38;;;3.30;;
34491;SDS011;20737;49.908;8.126;2023-02-17T05:09:17;6.10;;;3.80;;
34491;SDS011;20737;49.908;8.126;2023-02-17T05:11:46;7.15;;;4.13;;
34491;SDS011;20737;49.908;8.126;2023-02-17T05:14:15;5.07;;;3.58;;
34491;SDS011;20737;49.908;8.126;2023-02-17T05:16:42;7.20;;;3.72;;
34491;SDS011;20737;49.908;8.126;2023-02-17T05:19:11;6.18;;;3.47;;
34491;SDS011;20737;49.908;8.126;2023-02-17T05:21:38;4.97;;;3.50;;
34491;SDS011;20737;49.908;8.126;2023-02-17T05:24:05;7.32;;;3.80;;
34491;SDS011;20737;49.908;8.126;2023-02-17T05:26:32;3.97;;;3.50;;
34491;SDS011;20737;49.908;8.126;2023-02-17T05:28:59;6.22;;;3.60;;
34491;SDS011;20737;49.908;8.126;2023-02-17T05:31:25;5.43;;;3.40;;
34491;SDS011;20737;49.908;8.126;2023-02-17T05:33:52;5.78;;;3.78;;
34491;SDS011;20737;49.908;8.126;2023-02-17T05:36:23;5.82;;;3.80;;
34491;SDS011;20737;49.908;8.126;2023-02-17T05:38:50;6.00;;;3.90;;
34491;SDS011;20737;49.908;8.126;2023-02-17T05:41:19;5.97;;;3.72;;
34491;SDS011;20737;49.908;8.126;2023-02-17T05:43:51;5.15;;;3.55;;
34491;SDS011;20737;49.908;8.126;2023-02-17T05:46:19;6.32;;;4.07;;
34491;SDS011;20737;49.908;8.126;2023-02-17T05:48:47;6.38;;;3.35;;
34491;SDS011;20737;49.908;8.126;2023-02-17T05:51:14;7.22;;;4.20;;
34491;SDS011;20737;49.908;8.126;2023-02-17T05:53:42;4.53;;;2.63;;
34491;SDS011;20737;49.908;8.126;2023-02-17T05:56:09;5.20;;;3.33;;
34491;SDS011;20737;49.908;8.126;2023-02-17T05:58:36;4.80;;;2.95;;
34491;SDS011;20737;49.908;8.126;2023-02-17T06:01:06;5.40;;;3.72;;
34491;SDS011;20737;49.908;8.126;2023-02-17T06:03:33;4.88;;;3.40;;
34491;SDS011;20737;49.908;8.126;2023-02-17T06:06:05;5.35;;;3.60;;
34491;SDS011;20737;49.908;8.126;2023-02-17T06:08:32;5.32;;;3.63;;
34491;SDS011;20737;49.908;8.126;2023-02-17T06:11:00;5.35;;;3.80;;
34491;SDS011;20737;49.908;8.126;2023-02-17T06:13:27;5.03;;;3.53;;
34491;SDS011;20737;49.908;8.126;2023-02-17T06:15:54;5.72;;;3.58;;
34491;SDS011;20737;49.908;8.126;2023-02-17T06:18:20;5.05;;;3.30;;
34491;SDS011;20737;49.908;8.126;2023-02-17T06:20:49;4.85;;;3.75;;
34491;SDS011;20737;49.908;8.126;2023-02-17T06:23:16;4.88;;;3.60;;
34491;SDS011;20737;49.908;8.126;2023-02-17T06:25:43;4.93;;;3.20;;
34491;SDS011;20737;49.908;8.126;2023-02-17T06:28:11;5.03;;;2.88;;
34491;SDS011;20737;49.908;8.126;2023-02-17T06:30:38;5.13;;;3.25;;
34491;SDS011;20737;49.908;8.126;2023-02-17T06:33:05;4.78;;;3.10;;
34491;SDS011;20737;49.908;8.126;2023-02-17T06:35:32;4.75;;;3.10;;
34491;SDS011;20737;49.908;8.126;2023-02-17T06:37:59;5.80;;;3.28;;
34491;SDS011;20737;49.908;8.126;2023-02-17T06:40:26;3.90;;;2.70;;
34491;SDS011;20737;49.908;8.126;2023-02-17T06:43:00;4.97;;;3.45;;
34491;SDS011;20737;49.908;8.126;2023-02-17T06:45:28;4.45;;;3.05;;
34491;SDS011;20737;49.908;8.126;2023-02-17T06:47:58;4.32;;;3.08;;
34491;SDS011;20737;49.908;8.126;2023-02-17T06:50:25;4.57;;;3.50;;
34491;SDS011;20737;49.908;8.126;2023-02-17T06:52:51;5.75;;;3.35;;
34491;SDS011;20737;49.908;8.126;2023-02-17T06:55:18;4.70;;;3.20;;
34491;SDS011;20737;49.908;8.126;2023-02-17T06:57:45;5.38;;;3.25;;
34491;SDS011;20737;49.908;8.126;2023-02-17T07:00:12;2.85;;;2.58;;
34491;SDS011;20737;49.908;8.126;2023-02-17T07:02:46;4.35;;;2.97;;
34491;SDS011;20737;49.908;8.126;2023-02-17T07:05:13;3.90;;;2.65;;
34491;SDS011;20737;49.908;8.126;2023-02-17T07:07:39;3.53;;;2.58;;
34491;SDS011;20737;49.908;8.126;2023-02-17T07:10:09;3.65;;;2.15;;
34491;SDS011;20737;49.908;8.126;2023-02-17T07:12:37;3.60;;;2.67;;
34491;SDS011;20737;49.908;8.126;2023-02-17T07:15:06;4.32;;;2.95;;
34491;SDS011;20737;49.908;8.126;2023-02-17T07:17:34;3.85;;;2.80;;
34491;SDS011;20737;49.908;8.126;2023-02-17T07:20:02;3.00;;;2.42;;
34491;SDS011;20737;49.908;8.126;2023-02-17T07:22:33;4.60;;;2.97;;
34491;SDS011;20737;49.908;8.126;2023-02-17T07:25:00;3.15;;;1.90;;
34491;SDS011;20737;49.908;8.126;2023-02-17T07:27:27;3.30;;;2.60;;
34491;SDS011;20737;49.908;8.126;2023-02-17T07:29:54;4.78;;;2.75;;
34491;SDS011;20737;49.908;8.126;2023-02-17T07:32:23;2.60;;;2.28;;
34491;SDS011;20737;49.908;8.126;2023-02-17T07:34:52;4.45;;;2.85;;
34491;SDS011;20737;49.908;8.126;2023-02-17T07:37:21;2.97;;;2.10;;
34491;SDS011;20737;49.908;8.126;2023-02-17T07:39:47;4.82;;;3.05;;
34491;SDS011;20737;49.908;8.126;2023-02-17T07:42:14;3.78;;;2.50;;
34491;SDS011;20737;49.908;8.126;2023-02-17T07:44:41;4.10;;;2.80;;
34491;SDS011;20737;49.908;8.126;2023-02-17T07:47:08;3.67;;;2.55;;
34491;SDS011;20737;49.908;8.126;2023-02-17T07:49:34;3.85;;;2.55;;
34491;SDS011;20737;49.908;8.126;2023-02-17T07:52:01;3.90;;;2.78;;
34491;SDS011;20737;49.908;8.126;2023-02-17T07:54:30;3.03;;;2.72;;
34491;SDS011;20737;49.908;8.126;2023-02-17T07:56:56;4.30;;;2.92;;
34491;SDS011;20737;49.908;8.126;2023-02-17T07:59:23;5.40;;;3.53;;
34491;SDS011;20737;49.908;8.126;2023-02-17T08:01:50;6.35;;;3.20;;
34491;SDS011;20737;49.908;8.126;2023-02-17T08:04:18;4.72;;;3.35;;
34491;SDS011;20737;49.908;8.126;2023-02-17T08:06:47;6.03;;;3.72;;
34491;SDS011;20737;49.908;8.126;2023-02-17T08:09:14;4.45;;;2.85;;
34491;SDS011;20737;49.908;8.126;2023-02-17T08:11:59;5.28;;;3.05;;
34491;SDS011;20737;49.908;8.126;2023-02-17T08:14:43;4.80;;;3.38;;
34491;SDS011;20737;49.908;8.126;2023-02-17T08:17:10;4.68;;;2.97;;
34491;SDS011;20737;49.908;8.126;2023-02-17T08:19:37;4.90;;;3.55;;
34491;SDS011;20737;49.908;8.126;2023-02-17T08:22:04;5.68;;;3.15;;
34491;SDS011;20737;49.908;8.126;2023-02-17T08:24:30;5.55;;;3.63;;
34491;SDS011;20737;49.908;8.126;2023-02-17T08:26:57;4.70;;;3.38;;
34491;SDS011;20737;49.908;8.126;2023-02-17T08:34:18;5.18;;;3.08;;
34491;SDS011;20737;49.908;8.126;2023-02-17T08:36:45;6.93;;;3.63;;
34491;SDS011;20737;49.908;8.126;2023-02-17T08:39:13;4.50;;;3.53;;
34491;SDS011;20737;49.908;8.126;2023-02-17T08:44:09;4.70;;;3.05;;
34491;SDS011;20737;49.908;8.126;2023-02-17T08:51:41;4.43;;;3.05;;
34491;SDS011;20737;49.908;8.126;2023-02-17T08:56:35;6.18;;;3.25;;
34491;SDS011;20737;49.908;8.126;2023-02-17T09:01:31;3.90;;;3.00;;
34491;SDS011;20737;49.908;8.126;2023-02-17T09:04:01;5.63;;;3.55;;
34491;SDS011;20737;49.908;8.126;2023-02-17T09:06:32;5.35;;;3.65;;
34491;SDS011;20737;49.908;8.126;2023-02-17T09:09:01;4.65;;;3.10;;
34491;SDS011;20737;49.908;8.126;2023-02-17T09:11:34;6.40;;;3.75;;
34491;SDS011;20737;49.908;8.126;2023-02-17T09:14:01;4.57;;;3.53;;
34491;SDS011;20737;49.908;8.126;2023-02-17T09:16:30;9.43;;;4.85;;
34491;SDS011;20737;49.908;8.126;2023-02-17T09:19:01;6.40;;;4.00;;
34491;SDS011;20737;49.908;8.126;2023-02-17T09:21:28;5.38;;;3.70;;
34491;SDS011;20737;49.908;8.126;2023-02-17T09:23:55;7.70;;;4.40;;
34491;SDS011;20737;49.908;8.126;2023-02-17T09:26:21;5.70;;;4.03;;
34491;SDS011;20737;49.908;8.126;2023-02-17T09:28:48;6.53;;;4.15;;
34491;SDS011;20737;49.908;8.126;2023-02-17T09:31:22;6.38;;;4.38;;
34491;SDS011;20737;49.908;8.126;2023-02-17T09:33:52;5.28;;;3.63;;
34491;SDS011;20737;49.908;8.126;2023-02-17T09:36:20;8.98;;;3.65;;
34491;SDS011;20737;49.908;8.126;2023-02-17T09:38:48;6.72;;;4.38;;
34491;SDS011;20737;49.908;8.126;2023-02-17T09:41:17;8.23;;;3.95;;
34491;SDS011;20737;49.908;8.126;2023-02-17T09:43:47;5.85;;;3.70;;
34491;SDS011;20737;49.908;8.126;2023-02-17T09:46:19;6.38;;;3.67;;
34491;SDS011;20737;49.908;8.126;2023-02-17T09:48:53;5.07;;;2.92;;
34491;SDS011;20737;49.908;8.126;2023-02-17T09:51:25;5.93;;;3.15;;
34491;SDS011;20737;49.908;8.126;2023-02-17T09:53:57;4.63;;;3.08;;
34491;SDS011;20737;49.908;8.126;2023-02-17T09:56:32;4.78;;;3.33;;
34491;SDS011;20737;49.908;8.126;2023-02-17T09:59:02;4.60;;;3.25;;
34491;SDS011;20737;49.908;8.126;2023-02-17T10:01:41;4.70;;;2.72;;
34491;SDS011;20737;49.908;8.126;2023-02-17T10:04:13;5.13;;;2.72;;
34491;SDS011;20737;49.908;8.126;2023-02-17T10:06:45;3.22;;;2.35;;
34491;SDS011;20737;49.908;8.126;2023-02-17T10:09:15;3.00;;;2.53;;
34491;SDS011;20737;49.908;8.126;2023-02-17T10:11:49;4.38;;;2.67;;
34491;SDS011;20737;49.908;8.126;2023-02-17T10:14:23;3.88;;;2.40;;
34491;SDS011;20737;49.908;8.126;2023-02-17T10:16:56;4.18;;;2.47;;
34491;SDS011;20737;49.908;8.126;2023-02-17T10:19:37;5.00;;;2.95;;
34491;SDS011;20737;49.908;8.126;2023-02-17T10:22:11;3.80;;;2.67;;
34491;SDS011;20737;49.908;8.126;2023-02-17T10:24:43;4.25;;;3.05;;
34491;SDS011;20737;49.908;8.126;2023-02-17T10:27:14;3.58;;;2.80;;
34491;SDS011;20737;49.908;8.126;2023-02-17T10:29:51;3.30;;;2.35;;
34491;SDS011;20737;49.908;8.126;2023-02-17T10:32:28;4.30;;;3.05;;
34491;SDS011;20737;49.908;8.126;2023-02-17T10:35:04;4.32;;;3.13;;
34491;SDS011;20737;49.908;8.126;2023-02-17T10:37:40;5.60;;;2.97;;
34491;SDS011;20737;49.908;8.126;2023-02-17T10:40:12;3.42;;;2.60;;
34491;SDS011;20737;49.908;8.126;2023-02-17T10:42:45;3.83;;;2.80;;
34491;SDS011;20737;49.908;8.126;2023-02-17T10:45:18;2.28;;;1.85;;
34491;SDS011;20737;49.908;8.126;2023-02-17T10:47:56;3.72;;;2.75;;
34491;SDS011;20737;49.908;8.126;2023-02-17T10:50:27;2.83;;;2.20;;
34491;SDS011;20737;49.908;8.126;2023-02-17T10:52:58;3.50;;;2.80;;
34491;SDS011;20737;49.908;8.126;2023-02-17T10:55:35;4.22;;;3.00;;
34491;SDS011;20737;49.908;8.126;2023-02-17T10:58:10;3.75;;;2.47;;
34491;SDS011;20737;49.908;8.126;2023-02-17T11:00:44;3.90;;;2.25;;
34491;SDS011;20737;49.908;8.126;2023-02-17T11:03:20;3.38;;;2.35;;
34491;SDS011;20737;49.908;8.126;2023-02-17T11:05:54;3.90;;;2.63;;
34491;SDS011;20737;49.908;8.126;2023-02-17T11:08:30;4.32;;;2.58;;
34491;SDS011;20737;49.908;8.126;2023-02-17T11:11:00;3.08;;;2.10;;
34491;SDS011;20737;49.908;8.126;2023-02-17T11:13:32;4.07;;;2.85;;
34491;SDS011;20737;49.908;8.126;2023-02-17T11:16:02;3.53;;;2.58;;
34491;SDS011;20737;49.908;8.126;2023-02-17T11:18:30;3.70;;;2.50;;
34491;SDS011;20737;49.908;8.126;2023-02-17T11:21:03;4.63;;;2.65;;
34491;SDS011;20737;49.908;8.126;2023-02-17T11:23:32;4.63;;;2.80;;
34491;SDS011;20737;49.908;8.126;2023-02-17T11:26:00;3.30;;;2.42;;
34491;SDS011;20737;49.908;8.126;2023-02-17T11:28:36;4.30;;;2.67;;
34491;SDS011;20737;49.908;8.126;2023-02-17T11:31:03;4.20;;;3.38;;
34491;SDS011;20737;49.908;8.126;2023-02-17T11:33:33;3.42;;;2.70;;
34491;SDS011;20737;49.908;8.126;2023-02-17T11:36:03;2.38;;;2.17;;
34491;SDS011;20737;49.908;8.126;2023-02-17T11:38:33;3.05;;;2.63;;
34491;SDS011;20737;49.908;8.126;2023-02-17T11:41:12;2.53;;;1.90;;
34491;SDS011;20737;49.908;8.126;2023-02-17T11:43:42;3.38;;;2.60;;
34491;SDS011;20737;49.908;8.126;2023-02-17T11:46:23;3.35;;;2.03;;
34491;SDS011;20737;49.908;8.126;2023-02-17T11:49:01;2.83;;;2.20;;
34491;SDS011;20737;49.908;8.126;2023-02-17T11:52:06;4.25;;;2.05;;
34491;SDS011;20737;49.908;8.126;2023-02-17T11:54:45;2.92;;;2.17;;
34491;SDS011;20737;49.908;8.126;2023-02-17T11:57:34;3.15;;;1.80;;
34491;SDS011;20737;49.908;8.126;2023-02-17T12:00:12;1.98;;;1.67;;
34491;SDS011;20737;49.908;8.126;2023-02-17T12:02:54;1.42;;;1.33;;
34491;SDS011;20737;49.908;8.126;2023-02-17T12:05:43;1.53;;;1.23;;
34491;SDS011;20737;49.908;8.126;2023-02-17T12:08:21;1.85;;;1.55;;
34491;SDS011;20737;49.908;8.126;2023-02-17T12:10:56;1.80;;;1.45;;
34491;SDS011;20737;49.908;8.126;2023-02-17T12:13:33;2.13;;;1.38;;
34491;SDS011;20737;49.908;8.126;2023-02-17T12:16:10;1.83;;;1.70;;
34491;SDS011;20737;49.908;8.126;2023-02-17T12:19:01;1.80;;;1.17;;
34491;SDS011;20737;49.908;8.126;2023-02-17T12:21:40;2.10;;;1.50;;
34491;SDS011;20737;49.908;8.126;2023-02-17T12:24:20;2.17;;;1.98;;
34491;SDS011;20737;49.908;8.126;2023-02-17T12:27:01;4.25;;;1.73;;
34491;SDS011;20737;49.908;8.126;2023-02-17T12:29:38;1.98;;;1.40;;
34491;SDS011;20737;49.908;8.126;2023-02-17T12:32:24;1.65;;;1.30;;
34491;SDS011;20737;49.908;8.126;2023-02-17T12:35:09;2.25;;;1.35;;
34491;SDS011;20737;49.908;8.126;2023-02-17T12:37:49;1.75;;;1.38;;
34491;SDS011;20737;49.908;8.126;2023-02-17T12:40:27;2.08;;;1.40;;
34491;SDS011;20737;49.908;8.126;2023-02-17T12:43:13;1.90;;;1.23;;
34491;SDS011;20737;49.908;8.126;2023-02-17T12:45:47;1.40;;;1.30;;
34491;SDS011;20737;49.908;8.126;2023-02-17T12:48:19;1.77;;;1.60;;
34491;SDS011;20737;49.908;8.126;2023-02-17T12:50:51;1.10;;;1.00;;
34491;SDS011;20737;49.908;8.126;2023-02-17T12:53:24;2.45;;;1.75;;
34491;SDS011;20737;49.908;8.126;2023-02-17T12:56:02;2.20;;;1.38;;
34491;SDS011;20737;49.908;8.126;2023-02-17T12:58:40;1.80;;;1.55;;
34491;SDS011;20737;49.908;8.126;2023-02-17T13:01:08;2.50;;;1.65;;
34491;SDS011;20737;49.908;8.126;2023-02-17T13:03:38;1.30;;;1.10;;
34491;SDS011;20737;49.908;8.126;2023-02-17T13:06:18;1.73;;;1.45;;
34491;SDS011;20737;49.908;8.126;2023-02-17T13:08:52;2.03;;;1.30;;
34491;SDS011;20737;49.908;8.126;2023-02-17T13:11:27;1.30;;;1.20;;
34491;SDS011;20737;49.908;8.126;2023-02-17T13:13:55;1.80;;;1.65;;
34491;SDS011;20737;49.908;8.126;2023-02-17T13:16:22;1.40;;;1.30;;
34491;SDS011;20737;49.908;8.126;2023-02-17T13:18:50;2.15;;;1.35;;
34491;SDS011;20737;49.908;8.126;2023-02-17T13:21:30;1.98;;;1.70;;
34491;SDS011;20737;49.908;8.126;2023-02-17T13:23:59;1.60;;;1.50;;
34491;SDS011;20737;49.908;8.126;2023-02-17T13:26:29;1.58;;;1.40;;
34491;SDS011;20737;49.908;8.126;2023-02-17T13:29:15;3.28;;;1.85;;
34491;SDS011;20737;49.908;8.126;2023-02-17T13:31:46;1.63;;;1.35;;
34491;SDS011;20737;49.908;8.126;2023-02-17T13:34:29;2.05;;;1.65;;
34491;SDS011;20737;49.908;8.126;2023-02-17T13:36:58;1.60;;;1.50;;
34491;SDS011;20737;49.908;8.126;2023-02-17T13:39:30;1.80;;;1.50;;
34491;SDS011;20737;49.908;8.126;2023-02-17T13:42:00;1.30;;;1.20;;
34491;SDS011;20737;49.908;8.126;2023-02-17T13:44:31;1.83;;;1.30;;
34491;SDS011;20737;49.908;8.126;2023-02-17T13:46:59;1.27;;;1.17;;
34491;SDS011;20737;49.908;8.126;2023-02-17T13:49:29;1.08;;;0.90;;
34491;SDS011;20737;49.908;8.126;2023-02-17T13:52:14;1.77;;;1.00;;
34491;SDS011;20737;49.908;8.126;2023-02-17T13:54:49;1.45;;;1.13;;
34491;SDS011;20737;49.908;8.126;2023-02-17T13:57:26;3.58;;;1.20;;
34491;SDS011;20737;49.908;8.126;2023-02-17T14:00:06;1.65;;;1.10;;
34491;SDS011;20737;49.908;8.126;2023-02-17T14:02:36;2.38;;;1.40;;
34491;SDS011;20737;49.908;8.126;2023-02-17T14:05:15;1.27;;;1.17;;
34491;SDS011;20737;49.908;8.126;2023-02-17T14:07:44;0.95;;;0.88;;
34491;SDS011;20737;49.908;8.126;2023-02-17T14:10:18;2.65;;;1.00;;
34491;SDS011;20737;49.908;8.126;2023-02-17T14:12:50;0.80;;;0.80;;
34491;SDS011;20737;49.908;8.126;2023-02-17T14:15:20;0.68;;;0.68;;
34491;SDS011;20737;49.908;8.126;2023-02-17T14:17:48;1.02;;;0.80;;
34491;SDS011;20737;49.908;8.126;2023-02-17T14:20:26;2.25;;;1.15;;
34491;SDS011;20737;49.908;8.126;2023-02-17T14:22:59;4.72;;;3.13;;
34491;SDS011;20737;49.908;8.126;2023-02-17T14:25:28;2.88;;;1.00;;
34491;SDS011;20737;49.908;8.126;2023-02-17T14:28:02;1.40;;;0.70;;
34491;SDS011;20737;49.908;8.126;2023-02-17T14:30:31;1.10;;;1.00;;
34491;SDS011;20737;49.908;8.126;2023-02-17T14:32:59;3.35;;;1.00;;
34491;SDS011;20737;49.908;8.126;2023-02-17T14:35:33;1.00;;;0.90;;
34491;SDS011;20737;49.908;8.126;2023-02-17T14:38:07;1.98;;;1.05;;
34491;SDS011;20737;49.908;8.126;2023-02-17T14:40:43;1.33;;;1.20;;
34491;SDS011;20737;49.908;8.126;2023-02-17T14:43:11;4.43;;;2.28;;
34491;SDS011;20737;49.908;8.126;2023-02-17T14:45:43;2.80;;;1.23;;
34491;SDS011;20737;49.908;8.126;2023-02-17T14:48:10;2.35;;;1.20;;
34491;SDS011;20737;49.908;8.126;2023-02-17T14:50:38;1.15;;;1.05;;
34491;SDS011;20737;49.908;8.126;2023-02-17T14:53:12;1.40;;;1.10;;
34491;SDS011;20737;49.908;8.126;2023-02-17T14:55:48;2.75;;;1.85;;
34491;SDS011;20737;49.908;8.126;2023-02-17T14:58:23;1.20;;;1.10;;
34491;SDS011;20737;49.908;8.126;2023-02-17T15:00:51;1.35;;;1.17;;
34491;SDS011;20737;49.908;8.126;2023-02-17T15:03:17;2.72;;;1.38;;
34491;SDS011;20737;49.908;8.126;2023-02-17T15:05:47;1.83;;;1.02;;
34491;SDS011;20737;49.908;8.126;2023-02-17T15:08:16;2.58;;;1.77;;
34491;SDS011;20737;49.908;8.126;2023-02-17T15:10:46;4.53;;;2.05;;
34491;SDS011;20737;49.908;8.126;2023-02-17T15:13:14;2.08;;;1.20;;
34491;SDS011;20737;49.908;8.126;2023-02-17T15:15:44;2.88;;;1.40;;
34491;SDS011;20737;49.908;8.126;2023-02-17T15:18:11;2.72;;;1.00;;
34491;SDS011;20737;49.908;8.126;2023-02-17T15:20:40;1.25;;;1.02;;
34491;SDS011;20737;49.908;8.126;2023-02-17T15:23:10;0.80;;;0.80;;
34491;SDS011;20737;49.908;8.126;2023-02-17T15:25:41;1.20;;;0.90;;